sensor_id;sensor_type;location;lat;lon;timestamp;P1;durP1;ratioP1;P2;durP2;ratioP2
1677;SDS011;6034;46.864;15.216;2024-03-06T06:00:31;24.38;;;18.13;;
1677;SDS011;6034;46.864;15.216;2024-03-06T06:02:59;27.08;;;18.70;;
1677;SDS011;6034;46.864;15.216;2024-03-06T06:05:26;22.80;;;16.80;;
1677;SDS011;6034;46.864;15.216;2024-03-06T06:07:54;26.13;;;19.05;;
1677;SDS011;6034;46.864;15.216;2024-03-06T06:10:21;25.30;;;18.88;;
1677;SDS011;6034;46.864;15.216;2024-03-06T06:12:49;29.48;;;18.45;;
1677;SDS011;6034;46.864;15.216;2024-03-06T06:15:21;30.95;;;20.50;;
1677;SDS011;6034;46.864;15.216;2024-03-06T06:17:50;24.63;;;18.92;;
1677;SDS011;6034;46.864;15.216;2024-03-06T06:20:18;23.98;;;18.95;;
1677;SDS011;6034;46.864;15.216;2024-03-06T06:22:45;30.10;;;22.83;;
1677;SDS011;6034;46.864;15.216;2024-03-06T06:25:13;30.45;;;22.35;;
1677;SDS011;6034;46.864;15.216;2024-03-06T06:27:41;30.52;;;20.85;;
1677;SDS011;6034;46.864;15.216;2024-03-06T06:30:09;25.13;;;20.73;;
1677;SDS011;6034;46.864;15.216;2024-03-06T06:32:37;29.60;;;22.25;;
1677;SDS011;6034;46.864;15.216;2024-03-06T06:35:07;30.33;;;22.73;;
1677;SDS011;6034;46.864;15.216;2024-03-06T06:37:36;30.20;;;22.00;;
1677;SDS011;6034;46.864;15.216;2024-03-06T06:40:04;31.92;;;23.80;;
1677;SDS011;6034;46.864;15.216;2024-03-06T06:42:35;30.95;;;24.20;;
1677;SDS011;6034;46.864;15.216;2024-03-06T06:45:03;30.63;;;21.20;;
1677;SDS011;6034;46.864;15.216;2024-03-06T06:47:32;29.40;;;21.77;;
1677;SDS011;6034;46.864;15.216;2024-03-06T06:50:00;28.00;;;21.45;;
1677;SDS011;6034;46.864;15.216;2024-03-06T06:52:31;29.23;;;21.65;;
1677;SDS011;6034;46.864;15.216;2024-03-06T06:55:00;28.83;;;21.30;;
1677;SDS011;6034;46.864;15.216;2024-03-06T06:57:29;33.65;;;22.65;;
1677;SDS011;6034;46.864;15.216;2024-03-06T06:59:58;27.38;;;19.98;;
1677;SDS011;6034;46.864;15.216;2024-03-06T07:02:28;26.67;;;19.38;;
1677;SDS011;6034;46.864;15.216;2024-03-06T07:04:56;24.98;;;19.70;;
1677;SDS011;6034;46.864;15.216;2024-03-06T07:07:24;30.48;;;20.55;;
1677;SDS011;6034;46.864;15.216;2024-03-06T07:09:53;29.00;;;19.83;;
1677;SDS011;6034;46.864;15.216;2024-03-06T07:12:20;30.73;;;21.60;;
1677;SDS011;6034;46.864;15.216;2024-03-06T07:14:48;27.45;;;21.85;;
1677;SDS011;6034;46.864;15.216;2024-03-06T07:17:16;29.70;;;20.15;;
1677;SDS011;6034;46.864;15.216;2024-03-06T07:19:43;30.27;;;20.63;;
1677;SDS011;6034;46.864;15.216;2024-03-06T07:22:12;28.75;;;22.20;;
1677;SDS011;6034;46.864;15.216;2024-03-06T07:24:39;29.40;;;21.95;;
1677;SDS011;6034;46.864;15.216;2024-03-06T07:27:09;29.63;;;21.90;;
1677;SDS011;6034;46.864;15.216;2024-03-06T07:29:37;29.45;;;21.50;;
1677;SDS011;6034;46.864;15.216;2024-03-06T07:32:04;34.90;;;23.30;;
1677;SDS011;6034;46.864;15.216;2024-03-06T07:34:32;32.33;;;22.13;;
1677;SDS011;6034;46.864;15.216;2024-03-06T07:37:00;28.08;;;19.88;;
1677;SDS011;6034;46.864;15.216;2024-03-06T07:39:28;31.33;;;22.02;;
1677;SDS011;6034;46.864;15.216;2024-03-06T07:41:56;27.85;;;19.65;;
1677;SDS011;6034;46.864;15.216;2024-03-06T07:44:25;25.77;;;19.75;;
1677;SDS011;6034;46.864;15.216;2024-03-06T07:46:52;27.73;;;19.83;;
1677;SDS011;6034;46.864;15.216;2024-03-06T07:49:20;26.65;;;19.98;;
1677;SDS011;6034;46.864;15.216;2024-03-06T07:51:47;30.80;;;20.85;;
1677;SDS011;6034;46.864;15.216;2024-03-06T07:54:15;25.70;;;19.85;;
1677;SDS011;6034;46.864;15.216;2024-03-06T07:56:42;27.52;;;20.10;;
1677;SDS011;6034;46.864;15.216;2024-03-06T07:59:10;29.50;;;19.98;;
1677;SDS011;6034;46.864;15.216;2024-03-06T08:01:39;28.48;;;20.95;;
1677;SDS011;6034;46.864;15.216;2024-03-06T08:04:06;27.17;;;19.25;;
1677;SDS011;6034;46.864;15.216;2024-03-06T08:06:34;26.65;;;19.38;;
1677;SDS011;6034;46.864;15.216;2024-03-06T08:09:02;29.42;;;21.58;;
1677;SDS011;6034;46.864;15.216;2024-03-06T08:11:32;28.58;;;19.90;;
1677;SDS011;6034;46.864;15.216;2024-03-06T08:14:00;26.02;;;18.00;;
1677;SDS011;6034;46.864;15.216;2024-03-06T08:16:28;23.77;;;19.10;;
1677;SDS011;6034;46.864;15.216;2024-03-06T08:18:58;25.52;;;17.77;;
1677;SDS011;6034;46.864;15.216;2024-03-06T08:21:25;23.05;;;16.80;;
1677;SDS011;6034;46.864;15.216;2024-03-06T08:23:53;25.13;;;18.60;;
1677;SDS011;6034;46.864;15.216;2024-03-06T08:26:20;27.40;;;18.38;;
1677;SDS011;6034;46.864;15.216;2024-03-06T08:28:48;27.25;;;19.73;;
1677;SDS011;6034;46.864;15.216;2024-03-06T08:31:17;24.75;;;17.48;;
1677;SDS011;6034;46.864;15.216;2024-03-06T08:33:46;26.83;;;18.23;;
1677;SDS011;6034;46.864;15.216;2024-03-06T08:36:15;26.35;;;19.17;;
1677;SDS011;6034;46.864;15.216;2024-03-06T08:38:43;22.83;;;17.48;;
1677;SDS011;6034;46.864;15.216;2024-03-06T08:41:10;29.10;;;19.17;;
1677;SDS011;6034;46.864;15.216;2024-03-06T08:43:38;29.58;;;20.45;;
1677;SDS011;6034;46.864;15.216;2024-03-06T08:46:05;21.63;;;17.80;;
1677;SDS011;6034;46.864;15.216;2024-03-06T08:48:33;21.70;;;17.65;;
1677;SDS011;6034;46.864;15.216;2024-03-06T08:51:01;25.73;;;17.75;;
1677;SDS011;6034;46.864;15.216;2024-03-06T08:53:32;23.33;;;16.77;;
1677;SDS011;6034;46.864;15.216;2024-03-06T08:55:59;28.40;;;17.98;;
1677;SDS011;6034;46.864;15.216;2024-03-06T08:58:27;26.92;;;18.60;;
1677;SDS011;6034;46.864;15.216;2024-03-06T09:00:55;26.02;;;18.98;;
1677;SDS011;6034;46.864;15.216;2024-03-06T09:03:24;25.75;;;18.50;;
1677;SDS011;6034;46.864;15.216;2024-03-06T09:05:51;27.98;;;18.38;;
1677;SDS011;6034;46.864;15.216;2024-03-06T09:08:18;24.85;;;17.58;;
1677;SDS011;6034;46.864;15.216;2024-03-06T09:10:47;23.63;;;17.85;;
1677;SDS011;6034;46.864;15.216;2024-03-06T09:13:15;23.27;;;16.80;;
1677;SDS011;6034;46.864;15.216;2024-03-06T09:15:42;25.60;;;18.63;;
1677;SDS011;6034;46.864;15.216;2024-03-06T09:18:09;27.83;;;19.13;;
1677;SDS011;6034;46.864;15.216;2024-03-06T09:20:37;25.33;;;18.27;;
1677;SDS011;6034;46.864;15.216;2024-03-06T09:23:04;25.38;;;18.55;;
1677;SDS011;6034;46.864;15.216;2024-03-06T09:25:32;25.02;;;18.83;;
1677;SDS011;6034;46.864;15.216;2024-03-06T09:28:00;29.10;;;19.30;;
1677;SDS011;6034;46.864;15.216;2024-03-06T09:30:30;24.55;;;19.45;;
1677;SDS011;6034;46.864;15.216;2024-03-06T09:32:57;24.30;;;18.23;;
1677;SDS011;6034;46.864;15.216;2024-03-06T09:35:25;24.17;;;19.00;;
1677;SDS011;6034;46.864;15.216;2024-03-06T09:37:52;25.25;;;19.08;;
1677;SDS011;6034;46.864;15.216;2024-03-06T09:40:22;22.85;;;17.38;;
1677;SDS011;6034;46.864;15.216;2024-03-06T09:42:50;29.05;;;18.80;;
1677;SDS011;6034;46.864;15.216;2024-03-06T09:45:19;24.65;;;18.17;;
1677;SDS011;6034;46.864;15.216;2024-03-06T09:47:47;25.70;;;18.95;;
1677;SDS011;6034;46.864;15.216;2024-03-06T09:50:17;24.77;;;19.42;;
1677;SDS011;6034;46.864;15.216;2024-03-06T09:52:50;24.48;;;18.42;;
1677;SDS011;6034;46.864;15.216;2024-03-06T09:55:20;27.40;;;18.90;;
1677;SDS011;6034;46.864;15.216;2024-03-06T09:57:49;28.50;;;20.35;;
1677;SDS011;6034;46.864;15.216;2024-03-06T10:00:16;28.77;;;19.30;;
1677;SDS011;6034;46.864;15.216;2024-03-06T10:02:50;26.42;;;21.98;;
1677;SDS011;6034;46.864;15.216;2024-03-06T10:05:24;29.40;;;19.90;;
1677;SDS011;6034;46.864;15.216;2024-03-06T10:07:52;26.33;;;20.73;;
1677;SDS011;6034;46.864;15.216;2024-03-06T10:10:20;30.95;;;19.52;;
1677;SDS011;6034;46.864;15.216;2024-03-06T10:12:48;26.65;;;17.98;;
1677;SDS011;6034;46.864;15.216;2024-03-06T10:15:16;27.25;;;19.58;;
1677;SDS011;6034;46.864;15.216;2024-03-06T10:17:43;27.45;;;20.25;;
1677;SDS011;6034;46.864;15.216;2024-03-06T10:20:22;27.45;;;19.65;;
1677;SDS011;6034;46.864;15.216;2024-03-06T10:22:51;24.45;;;18.35;;
1677;SDS011;6034;46.864;15.216;2024-03-06T10:25:20;26.73;;;20.05;;
1677;SDS011;6034;46.864;15.216;2024-03-06T10:28:02;27.55;;;20.55;;
1677;SDS011;6034;46.864;15.216;2024-03-06T10:30:32;27.33;;;19.27;;
1677;SDS011;6034;46.864;15.216;2024-03-06T10:33:01;33.42;;;19.52;;
1677;SDS011;6034;46.864;15.216;2024-03-06T10:35:32;27.00;;;19.98;;
1677;SDS011;6034;46.864;15.216;2024-03-06T10:38:00;24.35;;;18.15;;
1677;SDS011;6034;46.864;15.216;2024-03-06T10:40:28;27.73;;;19.80;;
1677;SDS011;6034;46.864;15.216;2024-03-06T10:42:58;26.42;;;19.60;;
1677;SDS011;6034;46.864;15.216;2024-03-06T10:45:28;23.65;;;17.77;;
1677;SDS011;6034;46.864;15.216;2024-03-06T10:48:07;27.98;;;19.23;;
1677;SDS011;6034;46.864;15.216;2024-03-06T10:50:39;20.73;;;17.85;;
1677;SDS011;6034;46.864;15.216;2024-03-06T10:53:09;25.33;;;18.42;;
1677;SDS011;6034;46.864;15.216;2024-03-06T10:55:37;27.60;;;17.98;;
1677;SDS011;6034;46.864;15.216;2024-03-06T10:58:06;28.58;;;18.77;;
1677;SDS011;6034;46.864;15.216;2024-03-06T11:00:35;26.83;;;20.38;;
1677;SDS011;6034;46.864;15.216;2024-03-06T11:03:05;26.05;;;18.27;;
1677;SDS011;6034;46.864;15.216;2024-03-06T11:05:35;21.90;;;17.25;;
1677;SDS011;6034;46.864;15.216;2024-03-06T11:08:07;23.77;;;17.50;;
1677;SDS011;6034;46.864;15.216;2024-03-06T11:10:36;30.08;;;19.50;;
1677;SDS011;6034;46.864;15.216;2024-03-06T11:13:08;28.88;;;17.15;;
1677;SDS011;6034;46.864;15.216;2024-03-06T11:15:47;24.33;;;17.98;;
1677;SDS011;6034;46.864;15.216;2024-03-06T11:21:30;25.08;;;18.98;;
1677;SDS011;6034;46.864;15.216;2024-03-06T11:24:16;30.85;;;18.00;;
1677;SDS011;6034;46.864;15.216;2024-03-06T11:26:46;24.35;;;18.60;;
1677;SDS011;6034;46.864;15.216;2024-03-06T11:29:17;22.67;;;17.00;;
1677;SDS011;6034;46.864;15.216;2024-03-06T11:32:05;24.77;;;18.90;;
1677;SDS011;6034;46.864;15.216;2024-03-06T11:34:35;26.70;;;19.23;;
1677;SDS011;6034;46.864;15.216;2024-03-06T11:37:03;23.73;;;18.67;;
1677;SDS011;6034;46.864;15.216;2024-03-06T11:39:34;28.50;;;20.20;;
1677;SDS011;6034;46.864;15.216;2024-03-06T11:42:03;23.92;;;17.73;;
1677;SDS011;6034;46.864;15.216;2024-03-06T11:44:33;25.65;;;18.77;;
1677;SDS011;6034;46.864;15.216;2024-03-06T11:47:02;25.73;;;18.30;;
1677;SDS011;6034;46.864;15.216;2024-03-06T11:49:33;23.10;;;17.88;;
1677;SDS011;6034;46.864;15.216;2024-03-06T11:52:02;26.73;;;19.27;;
1677;SDS011;6034;46.864;15.216;2024-03-06T11:54:34;27.13;;;19.67;;
1677;SDS011;6034;46.864;15.216;2024-03-06T11:57:02;23.33;;;18.67;;
1677;SDS011;6034;46.864;15.216;2024-03-06T11:59:32;24.50;;;18.50;;
1677;SDS011;6034;46.864;15.216;2024-03-06T12:02:01;23.85;;;18.33;;
1677;SDS011;6034;46.864;15.216;2024-03-06T12:04:31;24.77;;;18.95;;
1677;SDS011;6034;46.864;15.216;2024-03-06T12:07:01;27.42;;;20.13;;
1677;SDS011;6034;46.864;15.216;2024-03-06T12:09:31;24.83;;;18.10;;
1677;SDS011;6034;46.864;15.216;2024-03-06T12:12:01;26.90;;;18.83;;
1677;SDS011;6034;46.864;15.216;2024-03-06T12:14:29;24.73;;;19.20;;
1677;SDS011;6034;46.864;15.216;2024-03-06T12:16:56;28.67;;;18.80;;
1677;SDS011;6034;46.864;15.216;2024-03-06T12:19:25;24.88;;;18.73;;
1677;SDS011;6034;46.864;15.216;2024-03-06T12:21:55;27.80;;;18.77;;
1677;SDS011;6034;46.864;15.216;2024-03-06T12:24:25;24.65;;;17.88;;
1677;SDS011;6034;46.864;15.216;2024-03-06T12:26:59;26.73;;;20.42;;
1677;SDS011;6034;46.864;15.216;2024-03-06T12:29:29;25.45;;;20.05;;
1677;SDS011;6034;46.864;15.216;2024-03-06T12:31:58;28.85;;;20.35;;
1677;SDS011;6034;46.864;15.216;2024-03-06T12:34:27;26.15;;;18.77;;
1677;SDS011;6034;46.864;15.216;2024-03-06T12:36:55;27.45;;;19.40;;
1677;SDS011;6034;46.864;15.216;2024-03-06T12:39:23;25.90;;;20.55;;
1677;SDS011;6034;46.864;15.216;2024-03-06T12:41:50;26.40;;;18.70;;
1677;SDS011;6034;46.864;15.216;2024-03-06T12:44:20;27.20;;;19.88;;
1677;SDS011;6034;46.864;15.216;2024-03-06T12:46:48;30.25;;;20.40;;
1677;SDS011;6034;46.864;15.216;2024-03-06T12:49:15;33.15;;;21.30;;
1677;SDS011;6034;46.864;15.216;2024-03-06T12:51:44;26.55;;;20.15;;
1677;SDS011;6034;46.864;15.216;2024-03-06T12:54:11;26.73;;;21.52;;
1677;SDS011;6034;46.864;15.216;2024-03-06T12:56:39;31.67;;;22.02;;
1677;SDS011;6034;46.864;15.216;2024-03-06T12:59:06;32.13;;;23.73;;
1677;SDS011;6034;46.864;15.216;2024-03-06T13:01:36;26.92;;;21.98;;
1677;SDS011;6034;46.864;15.216;2024-03-06T13:04:03;28.83;;;20.10;;
1677;SDS011;6034;46.864;15.216;2024-03-06T13:06:31;27.88;;;20.67;;
1677;SDS011;6034;46.864;15.216;2024-03-06T13:08:59;27.90;;;20.65;;
1677;SDS011;6034;46.864;15.216;2024-03-06T13:11:26;27.00;;;21.27;;
1677;SDS011;6034;46.864;15.216;2024-03-06T13:13:54;31.40;;;21.33;;
1677;SDS011;6034;46.864;15.216;2024-03-06T13:16:21;29.15;;;19.05;;
1677;SDS011;6034;46.864;15.216;2024-03-06T13:18:50;22.45;;;18.80;;
1677;SDS011;6034;46.864;15.216;2024-03-06T13:21:19;28.65;;;20.75;;
1677;SDS011;6034;46.864;15.216;2024-03-06T13:23:47;29.10;;;20.67;;
1677;SDS011;6034;46.864;15.216;2024-03-06T13:26:14;29.83;;;18.70;;
1677;SDS011;6034;46.864;15.216;2024-03-06T13:28:43;26.40;;;19.90;;
1677;SDS011;6034;46.864;15.216;2024-03-06T13:31:11;27.95;;;20.80;;
1677;SDS011;6034;46.864;15.216;2024-03-06T13:33:39;29.42;;;19.23;;
1677;SDS011;6034;46.864;15.216;2024-03-06T13:36:08;29.02;;;19.88;;
1677;SDS011;6034;46.864;15.216;2024-03-06T13:38:35;25.05;;;19.13;;
1677;SDS011;6034;46.864;15.216;2024-03-06T13:41:03;25.75;;;19.58;;
1677;SDS011;6034;46.864;15.216;2024-03-06T13:43:30;28.17;;;18.30;;
1677;SDS011;6034;46.864;15.216;2024-03-06T13:45:58;25.40;;;18.75;;
1677;SDS011;6034;46.864;15.216;2024-03-06T13:48:25;23.23;;;18.02;;
1677;SDS011;6034;46.864;15.216;2024-03-06T13:50:52;25.48;;;19.40;;
1677;SDS011;6034;46.864;15.216;2024-03-06T13:53:21;27.20;;;19.40;;
1677;SDS011;6034;46.864;15.216;2024-03-06T13:55:49;28.52;;;17.55;;
1677;SDS011;6034;46.864;15.216;2024-03-06T13:58:17;28.58;;;21.20;;
1677;SDS011;6034;46.864;15.216;2024-03-06T14:00:44;27.95;;;19.50;;
1677;SDS011;6034;46.864;15.216;2024-03-06T14:03:12;28.02;;;19.23;;
1677;SDS011;6034;46.864;15.216;2024-03-06T14:05:39;26.33;;;19.25;;
1677;SDS011;6034;46.864;15.216;2024-03-06T14:08:07;23.45;;;17.80;;
1677;SDS011;6034;46.864;15.216;2024-03-06T14:10:38;29.02;;;20.02;;
1677;SDS011;6034;46.864;15.216;2024-03-06T14:13:06;27.38;;;20.42;;
1677;SDS011;6034;46.864;15.216;2024-03-06T14:15:33;20.48;;;16.95;;
1677;SDS011;6034;46.864;15.216;2024-03-06T14:18:01;22.70;;;17.40;;
1677;SDS011;6034;46.864;15.216;2024-03-06T14:20:29;29.25;;;18.70;;
1677;SDS011;6034;46.864;15.216;2024-03-06T14:22:57;26.33;;;21.05;;
1677;SDS011;6034;46.864;15.216;2024-03-06T14:25:24;28.60;;;19.58;;
1677;SDS011;6034;46.864;15.216;2024-03-06T14:27:53;23.77;;;18.10;;
1677;SDS011;6034;46.864;15.216;2024-03-06T14:30:20;27.65;;;20.20;;
1677;SDS011;6034;46.864;15.216;2024-03-06T14:32:48;23.80;;;18.23;;
1677;SDS011;6034;46.864;15.216;2024-03-06T14:35:15;27.90;;;19.33;;
1677;SDS011;6034;46.864;15.216;2024-03-06T14:37:44;26.27;;;19.45;;
1677;SDS011;6034;46.864;15.216;2024-03-06T14:40:11;26.88;;;20.40;;
1677;SDS011;6034;46.864;15.216;2024-03-06T14:42:39;26.98;;;20.25;;
1677;SDS011;6034;46.864;15.216;2024-03-06T14:45:08;30.85;;;19.58;;
1677;SDS011;6034;46.864;15.216;2024-03-06T14:47:36;26.80;;;18.30;;
1677;SDS011;6034;46.864;15.216;2024-03-06T14:50:03;22.63;;;17.20;;
1677;SDS011;6034;46.864;15.216;2024-03-06T14:52:32;26.98;;;19.35;;
1677;SDS011;6034;46.864;15.216;2024-03-06T14:55:00;25.35;;;18.70;;
1677;SDS011;6034;46.864;15.216;2024-03-06T14:57:29;27.02;;;20.90;;
1677;SDS011;6034;46.864;15.216;2024-03-06T14:59:57;24.02;;;18.85;;
1677;SDS011;6034;46.864;15.216;2024-03-06T15:02:26;23.75;;;18.55;;
1677;SDS011;6034;46.864;15.216;2024-03-06T15:04:53;26.88;;;18.83;;
1677;SDS011;6034;46.864;15.216;2024-03-06T15:07:21;24.98;;;19.33;;
1677;SDS011;6034;46.864;15.216;2024-03-06T15:09:48;28.45;;;20.42;;
1677;SDS011;6034;46.864;15.216;2024-03-06T15:12:16;24.10;;;18.20;;
1677;SDS011;6034;46.864;15.216;2024-03-06T15:14:43;31.33;;;22.63;;
1677;SDS011;6034;46.864;15.216;2024-03-06T15:17:11;25.40;;;18.25;;
1677;SDS011;6034;46.864;15.216;2024-03-06T15:19:39;27.95;;;20.50;;
1677;SDS011;6034;46.864;15.216;2024-03-06T15:22:07;25.05;;;18.17;;
1677;SDS011;6034;46.864;15.216;2024-03-06T15:24:36;24.77;;;19.05;;
1677;SDS011;6034;46.864;15.216;2024-03-06T15:27:04;26.77;;;17.90;;
1677;SDS011;6034;46.864;15.216;2024-03-06T15:29:31;24.42;;;18.33;;
1677;SDS011;6034;46.864;15.216;2024-03-06T15:31:58;26.83;;;20.17;;
1677;SDS011;6034;46.864;15.216;2024-03-06T15:34:26;27.70;;;19.10;;
1677;SDS011;6034;46.864;15.216;2024-03-06T15:36:55;26.63;;;18.75;;
1677;SDS011;6034;46.864;15.216;2024-03-06T15:39:22;24.45;;;18.02;;
1677;SDS011;6034;46.864;15.216;2024-03-06T15:41:49;24.13;;;17.65;;
1677;SDS011;6034;46.864;15.216;2024-03-06T15:44:17;26.85;;;17.90;;
1677;SDS011;6034;46.864;15.216;2024-03-06T15:46:44;24.63;;;18.90;;
1677;SDS011;6034;46.864;15.216;2024-03-06T15:49:18;24.25;;;19.02;;
1677;SDS011;6034;46.864;15.216;2024-03-06T15:51:49;25.00;;;17.02;;
1677;SDS011;6034;46.864;15.216;2024-03-06T15:54:19;23.60;;;17.33;;
1677;SDS011;6034;46.864;15.216;2024-03-06T15:56:47;22.30;;;17.23;;
1677;SDS011;6034;46.864;15.216;2024-03-06T15:59:14;21.63;;;16.45;;
1677;SDS011;6034;46.864;15.216;2024-03-06T16:01:42;23.45;;;16.20;;
1677;SDS011;6034;46.864;15.216;2024-03-06T16:04:09;24.08;;;17.52;;
1677;SDS011;6034;46.864;15.216;2024-03-06T16:06:38;23.45;;;16.83;;
1677;SDS011;6034;46.864;15.216;2024-03-06T16:09:06;28.63;;;17.75;;
1677;SDS011;6034;46.864;15.216;2024-03-06T16:11:40;26.88;;;19.27;;
1677;SDS011;6034;46.864;15.216;2024-03-06T16:14:07;23.55;;;18.50;;
1677;SDS011;6034;46.864;15.216;2024-03-06T16:16:35;22.15;;;17.90;;
1677;SDS011;6034;46.864;15.216;2024-03-06T16:19:02;23.77;;;19.45;;
1677;SDS011;6034;46.864;15.216;2024-03-06T16:21:30;31.65;;;19.67;;
1677;SDS011;6034;46.864;15.216;2024-03-06T16:23:57;26.35;;;19.50;;
1677;SDS011;6034;46.864;15.216;2024-03-06T16:26:27;24.77;;;18.17;;
1677;SDS011;6034;46.864;15.216;2024-03-06T16:28:58;20.30;;;16.00;;
1677;SDS011;6034;46.864;15.216;2024-03-06T16:31:26;23.50;;;17.23;;
1677;SDS011;6034;46.864;15.216;2024-03-06T16:33:54;26.63;;;17.55;;
1677;SDS011;6034;46.864;15.216;2024-03-06T16:36:21;27.17;;;18.40;;
1677;SDS011;6034;46.864;15.216;2024-03-06T16:38:49;31.60;;;24.48;;
1677;SDS011;6034;46.864;15.216;2024-03-06T16:41:16;34.13;;;25.23;;
1677;SDS011;6034;46.864;15.216;2024-03-06T16:43:44;33.70;;;26.98;;
1677;SDS011;6034;46.864;15.216;2024-03-06T16:46:13;32.35;;;24.10;;
1677;SDS011;6034;46.864;15.216;2024-03-06T16:48:43;32.13;;;21.00;;
1677;SDS011;6034;46.864;15.216;2024-03-06T16:51:14;25.52;;;18.80;;
1677;SDS011;6034;46.864;15.216;2024-03-06T16:53:45;22.40;;;16.45;;
1677;SDS011;6034;46.864;15.216;2024-03-06T16:56:14;21.45;;;15.57;;
1677;SDS011;6034;46.864;15.216;2024-03-06T16:58:43;27.40;;;15.90;;
1677;SDS011;6034;46.864;15.216;2024-03-06T17:01:10;19.40;;;15.48;;
1677;SDS011;6034;46.864;15.216;2024-03-06T17:03:39;15.73;;;12.80;;
1677;SDS011;6034;46.864;15.216;2024-03-06T17:06:07;15.50;;;11.38;;
1677;SDS011;6034;46.864;15.216;2024-03-06T17:08:35;16.80;;;10.75;;
1677;SDS011;6034;46.864;15.216;2024-03-06T17:11:03;11.70;;;10.15;;
1677;SDS011;6034;46.864;15.216;2024-03-06T17:13:30;12.38;;;10.35;;
1677;SDS011;6034;46.864;15.216;2024-03-06T17:15:57;12.00;;;8.98;;
1677;SDS011;6034;46.864;15.216;2024-03-06T17:18:25;13.20;;;9.95;;
1677;SDS011;6034;46.864;15.216;2024-03-06T17:20:54;10.68;;;8.43;;
1677;SDS011;6034;46.864;15.216;2024-03-06T17:23:21;11.70;;;9.10;;
1677;SDS011;6034;46.864;15.216;2024-03-06T17:25:49;11.15;;;7.60;;
1677;SDS011;6034;46.864;15.216;2024-03-06T17:28:17;11.60;;;8.70;;
1677;SDS011;6034;46.864;15.216;2024-03-06T17:30:45;12.10;;;8.32;;
1677;SDS011;6034;46.864;15.216;2024-03-06T17:33:13;12.27;;;9.57;;
1677;SDS011;6034;46.864;15.216;2024-03-06T17:35:42;19.73;;;12.70;;
1677;SDS011;6034;46.864;15.216;2024-03-06T17:38:11;18.17;;;14.07;;
1677;SDS011;6034;46.864;15.216;2024-03-06T17:40:39;22.90;;;16.10;;
1677;SDS011;6034;46.864;15.216;2024-03-06T17:43:08;12.50;;;10.57;;
1677;SDS011;6034;46.864;15.216;2024-03-06T17:45:36;16.92;;;12.80;;
1677;SDS011;6034;46.864;15.216;2024-03-06T17:48:06;13.68;;;11.30;;
1677;SDS011;6034;46.864;15.216;2024-03-06T17:50:34;13.18;;;10.43;;
1677;SDS011;6034;46.864;15.216;2024-03-06T17:53:03;10.18;;;8.02;;
1677;SDS011;6034;46.864;15.216;2024-03-06T17:55:34;11.35;;;8.88;;
1677;SDS011;6034;46.864;15.216;2024-03-06T17:58:04;10.40;;;8.40;;
1677;SDS011;6034;46.864;15.216;2024-03-06T18:00:34;9.10;;;7.63;;
1677;SDS011;6034;46.864;15.216;2024-03-06T18:03:02;9.80;;;7.20;;
1677;SDS011;6034;46.864;15.216;2024-03-06T18:05:30;12.73;;;7.95;;
1677;SDS011;6034;46.864;15.216;2024-03-06T18:07:58;10.88;;;7.13;;
1677;SDS011;6034;46.864;15.216;2024-03-06T18:10:27;12.07;;;8.60;;
1677;SDS011;6034;46.864;15.216;2024-03-06T18:12:56;13.35;;;9.68;;
1677;SDS011;6034;46.864;15.216;2024-03-06T18:15:23;11.77;;;9.55;;
1677;SDS011;6034;46.864;15.216;2024-03-06T18:17:51;14.18;;;9.20;;
1677;SDS011;6034;46.864;15.216;2024-03-06T18:20:20;11.70;;;8.80;;
1677;SDS011;6034;46.864;15.216;2024-03-06T18:22:47;12.20;;;8.45;;
1677;SDS011;6034;46.864;15.216;2024-03-06T18:25:14;14.57;;;8.55;;
1677;SDS011;6034;46.864;15.216;2024-03-06T18:27:42;11.48;;;8.40;;
1677;SDS011;6034;46.864;15.216;2024-03-06T18:30:12;10.13;;;7.70;;
1677;SDS011;6034;46.864;15.216;2024-03-06T18:32:40;10.55;;;9.18;;
1677;SDS011;6034;46.864;15.216;2024-03-06T18:35:08;10.45;;;8.95;;
1677;SDS011;6034;46.864;15.216;2024-03-06T18:37:35;16.30;;;13.70;;
1677;SDS011;6034;46.864;15.216;2024-03-06T18:40:03;10.68;;;8.20;;
1677;SDS011;6034;46.864;15.216;2024-03-06T18:42:31;8.43;;;7.53;;
1677;SDS011;6034;46.864;15.216;2024-03-06T18:44:59;14.25;;;9.98;;
1677;SDS011;6034;46.864;15.216;2024-03-06T18:47:29;11.57;;;9.65;;
1677;SDS011;6034;46.864;15.216;2024-03-06T18:49:56;14.50;;;11.00;;
1677;SDS011;6034;46.864;15.216;2024-03-06T18:52:23;12.60;;;10.90;;
1677;SDS011;6034;46.864;15.216;2024-03-06T18:54:51;13.00;;;11.40;;
1677;SDS011;6034;46.864;15.216;2024-03-06T18:57:19;15.95;;;11.63;;
1677;SDS011;6034;46.864;15.216;2024-03-06T18:59:46;12.75;;;11.38;;
1677;SDS011;6034;46.864;15.216;2024-03-06T19:02:15;14.50;;;10.68;;
1677;SDS011;6034;46.864;15.216;2024-03-06T19:04:48;17.70;;;13.15;;
1677;SDS011;6034;46.864;15.216;2024-03-06T19:07:15;19.27;;;14.30;;
1677;SDS011;6034;46.864;15.216;2024-03-06T19:09:44;15.38;;;13.77;;
1677;SDS011;6034;46.864;15.216;2024-03-06T19:12:12;15.25;;;12.77;;
1677;SDS011;6034;46.864;15.216;2024-03-06T19:14:40;18.73;;;12.88;;
1677;SDS011;6034;46.864;15.216;2024-03-06T19:17:07;18.08;;;14.85;;
1677;SDS011;6034;46.864;15.216;2024-03-06T19:19:35;20.30;;;14.82;;
1677;SDS011;6034;46.864;15.216;2024-03-06T19:22:06;26.95;;;17.05;;
1677;SDS011;6034;46.864;15.216;2024-03-06T19:24:34;22.80;;;15.80;;
1677;SDS011;6034;46.864;15.216;2024-03-06T19:27:06;20.40;;;15.65;;
1677;SDS011;6034;46.864;15.216;2024-03-06T19:29:33;21.42;;;16.48;;
1677;SDS011;6034;46.864;15.216;2024-03-06T19:32:01;24.10;;;20.42;;
1677;SDS011;6034;46.864;15.216;2024-03-06T19:34:30;23.70;;;17.75;;
1677;SDS011;6034;46.864;15.216;2024-03-06T19:36:58;21.67;;;17.65;;
1677;SDS011;6034;46.864;15.216;2024-03-06T19:39:27;24.90;;;18.25;;
1677;SDS011;6034;46.864;15.216;2024-03-06T19:41:55;23.83;;;18.52;;
1677;SDS011;6034;46.864;15.216;2024-03-06T19:44:23;22.60;;;18.42;;
1677;SDS011;6034;46.864;15.216;2024-03-06T19:46:52;21.77;;;16.35;;
1677;SDS011;6034;46.864;15.216;2024-03-06T19:49:20;21.77;;;15.98;;
1677;SDS011;6034;46.864;15.216;2024-03-06T19:51:50;21.88;;;15.02;;
1677;SDS011;6034;46.864;15.216;2024-03-06T19:54:19;17.50;;;12.35;;
1677;SDS011;6034;46.864;15.216;2024-03-06T19:56:49;14.13;;;10.38;;
1677;SDS011;6034;46.864;15.216;2024-03-06T19:59:18;13.18;;;9.02;;
1677;SDS011;6034;46.864;15.216;2024-03-06T20:01:45;12.00;;;8.80;;
1677;SDS011;6034;46.864;15.216;2024-03-06T20:04:12;10.32;;;7.80;;
1677;SDS011;6034;46.864;15.216;2024-03-06T20:06:40;12.80;;;8.07;;
1677;SDS011;6034;46.864;15.216;2024-03-06T20:09:09;11.18;;;7.88;;
1677;SDS011;6034;46.864;15.216;2024-03-06T20:11:40;9.20;;;7.10;;
1677;SDS011;6034;46.864;15.216;2024-03-06T20:14:15;12.50;;;7.93;;
1677;SDS011;6034;46.864;15.216;2024-03-06T20:16:46;11.48;;;7.00;;
1677;SDS011;6034;46.864;15.216;2024-03-06T20:19:14;8.55;;;7.13;;
1677;SDS011;6034;46.864;15.216;2024-03-06T20:21:43;9.95;;;7.57;;
1677;SDS011;6034;46.864;15.216;2024-03-06T20:24:13;10.00;;;7.28;;
1677;SDS011;6034;46.864;15.216;2024-03-06T20:26:41;9.00;;;7.22;;
1677;SDS011;6034;46.864;15.216;2024-03-06T20:29:09;12.77;;;7.50;;
1677;SDS011;6034;46.864;15.216;2024-03-06T20:31:42;13.98;;;7.75;;
1677;SDS011;6034;46.864;15.216;2024-03-06T20:34:10;10.07;;;7.88;;
1677;SDS011;6034;46.864;15.216;2024-03-06T20:36:38;9.07;;;7.10;;
1677;SDS011;6034;46.864;15.216;2024-03-06T20:39:09;10.45;;;8.05;;
1677;SDS011;6034;46.864;15.216;2024-03-06T20:41:40;10.30;;;8.23;;
1677;SDS011;6034;46.864;15.216;2024-03-06T20:44:11;12.55;;;7.85;;
1677;SDS011;6034;46.864;15.216;2024-03-06T20:46:42;10.00;;;7.47;;